sensor_id;sensor_type;location;lat;lon;timestamp;P1;durP1;ratioP1;P2;durP2;ratioP2
50128;SDS011;36026;45.478;9.224;2023-08-31T00:00:01;3.00;;;1.10;;
50128;SDS011;36026;45.478;9.224;2023-08-31T00:03:05;2.92;;;1.60;;
50128;SDS011;36026;45.478;9.224;2023-08-31T00:06:06;2.80;;;1.20;;
50128;SDS011;36026;45.478;9.224;2023-08-31T00:09:08;3.30;;;1.15;;
50128;SDS011;36026;45.478;9.224;2023-08-31T00:12:10;4.60;;;1.52;;
50128;SDS011;36026;45.478;9.224;2023-08-31T00:15:17;2.72;;;1.30;;
50128;SDS011;36026;45.478;9.224;2023-08-31T00:18:18;2.05;;;1.20;;
50128;SDS011;36026;45.478;9.224;2023-08-31T00:21:21;3.97;;;1.10;;
50128;SDS011;36026;45.478;9.224;2023-08-31T00:24:23;3.40;;;1.13;;
50128;SDS011;36026;45.478;9.224;2023-08-31T00:27:30;2.70;;;1.45;;
50128;SDS011;36026;45.478;9.224;2023-08-31T00:30:36;2.08;;;1.30;;
50128;SDS011;36026;45.478;9.224;2023-08-31T00:33:38;4.78;;;1.88;;
50128;SDS011;36026;45.478;9.224;2023-08-31T00:36:40;4.43;;;1.48;;
50128;SDS011;36026;45.478;9.224;2023-08-31T00:39:42;2.55;;;1.30;;
50128;SDS011;36026;45.478;9.224;2023-08-31T00:42:43;3.22;;;1.38;;
50128;SDS011;36026;45.478;9.224;2023-08-31T00:45:48;3.08;;;1.50;;
50128;SDS011;36026;45.478;9.224;2023-08-31T00:48:50;4.80;;;1.50;;
50128;SDS011;36026;45.478;9.224;2023-08-31T00:51:52;3.00;;;1.40;;
50128;SDS011;36026;45.478;9.224;2023-08-31T00:54:57;3.80;;;1.40;;
50128;SDS011;36026;45.478;9.224;2023-08-31T00:58:00;2.25;;;1.20;;
50128;SDS011;36026;45.478;9.224;2023-08-31T01:01:08;3.97;;;1.50;;
50128;SDS011;36026;45.478;9.224;2023-08-31T01:04:16;3.25;;;1.30;;
50128;SDS011;36026;45.478;9.224;2023-08-31T01:07:25;5.05;;;1.38;;
50128;SDS011;36026;45.478;9.224;2023-08-31T01:10:34;1.95;;;0.95;;
50128;SDS011;36026;45.478;9.224;2023-08-31T01:13:41;2.28;;;1.00;;
50128;SDS011;36026;45.478;9.224;2023-08-31T01:16:48;3.15;;;1.13;;
50128;SDS011;36026;45.478;9.224;2023-08-31T01:19:51;3.05;;;1.30;;
50128;SDS011;36026;45.478;9.224;2023-08-31T01:22:55;1.92;;;1.13;;
50128;SDS011;36026;45.478;9.224;2023-08-31T01:26:02;1.98;;;1.10;;
50128;SDS011;36026;45.478;9.224;2023-08-31T01:29:07;5.03;;;1.60;;
50128;SDS011;36026;45.478;9.224;2023-08-31T01:32:08;1.85;;;1.20;;
50128;SDS011;36026;45.478;9.224;2023-08-31T01:35:13;4.43;;;1.25;;
50128;SDS011;36026;45.478;9.224;2023-08-31T01:38:20;2.20;;;1.42;;
50128;SDS011;36026;45.478;9.224;2023-08-31T01:41:27;3.53;;;1.50;;
50128;SDS011;36026;45.478;9.224;2023-08-31T01:44:30;2.80;;;1.20;;
50128;SDS011;36026;45.478;9.224;2023-08-31T01:47:32;3.55;;;1.40;;
50128;SDS011;36026;45.478;9.224;2023-08-31T01:50:34;2.13;;;1.23;;
50128;SDS011;36026;45.478;9.224;2023-08-31T01:53:36;2.65;;;1.40;;
50128;SDS011;36026;45.478;9.224;2023-08-31T01:56:39;2.55;;;1.10;;
50128;SDS011;36026;45.478;9.224;2023-08-31T01:59:41;2.40;;;1.00;;
50128;SDS011;36026;45.478;9.224;2023-08-31T02:02:43;4.40;;;1.40;;
50128;SDS011;36026;45.478;9.224;2023-08-31T02:05:45;2.70;;;1.15;;
50128;SDS011;36026;45.478;9.224;2023-08-31T02:08:47;3.65;;;1.33;;
50128;SDS011;36026;45.478;9.224;2023-08-31T02:11:50;3.33;;;1.40;;
50128;SDS011;36026;45.478;9.224;2023-08-31T02:14:53;2.63;;;1.30;;
50128;SDS011;36026;45.478;9.224;2023-08-31T02:17:55;5.35;;;1.30;;
50128;SDS011;36026;45.478;9.224;2023-08-31T02:21:00;3.03;;;1.40;;
50128;SDS011;36026;45.478;9.224;2023-08-31T02:24:04;2.33;;;1.17;;
50128;SDS011;36026;45.478;9.224;2023-08-31T02:27:08;2.45;;;1.23;;
50128;SDS011;36026;45.478;9.224;2023-08-31T02:30:10;2.92;;;1.42;;
50128;SDS011;36026;45.478;9.224;2023-08-31T02:33:12;1.52;;;1.10;;
50128;SDS011;36026;45.478;9.224;2023-08-31T02:36:13;3.45;;;1.38;;
50128;SDS011;36026;45.478;9.224;2023-08-31T02:39:15;4.47;;;1.83;;
50128;SDS011;36026;45.478;9.224;2023-08-31T02:42:18;2.53;;;1.15;;
50128;SDS011;36026;45.478;9.224;2023-08-31T02:45:20;1.88;;;1.08;;
50128;SDS011;36026;45.478;9.224;2023-08-31T02:48:22;3.10;;;1.17;;
50128;SDS011;36026;45.478;9.224;2023-08-31T02:51:24;3.10;;;1.45;;
50128;SDS011;36026;45.478;9.224;2023-08-31T02:54:26;4.15;;;1.55;;
50128;SDS011;36026;45.478;9.224;2023-08-31T02:57:30;4.32;;;1.40;;
50128;SDS011;36026;45.478;9.224;2023-08-31T03:03:33;2.25;;;1.13;;
50128;SDS011;36026;45.478;9.224;2023-08-31T03:06:35;3.20;;;1.15;;
50128;SDS011;36026;45.478;9.224;2023-08-31T03:09:37;6.68;;;1.50;;
50128;SDS011;36026;45.478;9.224;2023-08-31T03:12:40;1.73;;;1.20;;
50128;SDS011;36026;45.478;9.224;2023-08-31T03:15:42;3.03;;;1.17;;
50128;SDS011;36026;45.478;9.224;2023-08-31T03:18:44;1.67;;;1.13;;
50128;SDS011;36026;45.478;9.224;2023-08-31T03:21:46;5.43;;;1.50;;
50128;SDS011;36026;45.478;9.224;2023-08-31T03:24:48;2.35;;;1.60;;
50128;SDS011;36026;45.478;9.224;2023-08-31T03:27:51;4.47;;;1.50;;
50128;SDS011;36026;45.478;9.224;2023-08-31T03:30:55;2.83;;;1.70;;
50128;SDS011;36026;45.478;9.224;2023-08-31T03:34:01;4.13;;;1.75;;
50128;SDS011;36026;45.478;9.224;2023-08-31T03:37:03;3.70;;;2.13;;
50128;SDS011;36026;45.478;9.224;2023-08-31T03:40:05;3.90;;;1.58;;
50128;SDS011;36026;45.478;9.224;2023-08-31T03:43:11;2.95;;;1.80;;
50128;SDS011;36026;45.478;9.224;2023-08-31T03:46:12;5.32;;;1.58;;
50128;SDS011;36026;45.478;9.224;2023-08-31T03:49:14;3.40;;;1.50;;
50128;SDS011;36026;45.478;9.224;2023-08-31T03:52:16;4.88;;;1.73;;
50128;SDS011;36026;45.478;9.224;2023-08-31T03:55:18;4.82;;;1.90;;
50128;SDS011;36026;45.478;9.224;2023-08-31T03:58:21;5.22;;;2.00;;
50128;SDS011;36026;45.478;9.224;2023-08-31T04:01:23;4.43;;;2.10;;
50128;SDS011;36026;45.478;9.224;2023-08-31T04:04:25;3.70;;;2.00;;
50128;SDS011;36026;45.478;9.224;2023-08-31T04:07:27;6.35;;;2.42;;
50128;SDS011;36026;45.478;9.224;2023-08-31T04:10:29;5.18;;;3.00;;
50128;SDS011;36026;45.478;9.224;2023-08-31T04:13:33;5.38;;;3.17;;
50128;SDS011;36026;45.478;9.224;2023-08-31T04:16:35;5.30;;;2.72;;
50128;SDS011;36026;45.478;9.224;2023-08-31T04:19:36;4.50;;;3.00;;
50128;SDS011;36026;45.478;9.224;2023-08-31T04:22:39;5.43;;;3.13;;
50128;SDS011;36026;45.478;9.224;2023-08-31T04:25:40;6.32;;;3.55;;
50128;SDS011;36026;45.478;9.224;2023-08-31T04:28:44;4.63;;;3.35;;
50128;SDS011;36026;45.478;9.224;2023-08-31T04:31:46;6.50;;;2.90;;
50128;SDS011;36026;45.478;9.224;2023-08-31T04:34:48;7.22;;;3.20;;
50128;SDS011;36026;45.478;9.224;2023-08-31T04:37:50;7.38;;;3.53;;
50128;SDS011;36026;45.478;9.224;2023-08-31T04:40:52;5.30;;;4.20;;
50128;SDS011;36026;45.478;9.224;2023-08-31T04:43:55;4.75;;;3.65;;
50128;SDS011;36026;45.478;9.224;2023-08-31T04:46:57;4.20;;;3.00;;
50128;SDS011;36026;45.478;9.224;2023-08-31T04:49:59;6.53;;;3.22;;
50128;SDS011;36026;45.478;9.224;2023-08-31T04:53:01;5.57;;;3.40;;
50128;SDS011;36026;45.478;9.224;2023-08-31T04:56:04;5.25;;;3.40;;
50128;SDS011;36026;45.478;9.224;2023-08-31T04:59:10;3.97;;;3.05;;
50128;SDS011;36026;45.478;9.224;2023-08-31T05:02:11;9.15;;;3.83;;
50128;SDS011;36026;45.478;9.224;2023-08-31T05:05:13;4.63;;;3.25;;
50128;SDS011;36026;45.478;9.224;2023-08-31T05:08:15;5.72;;;3.40;;
50128;SDS011;36026;45.478;9.224;2023-08-31T05:11:17;5.43;;;3.38;;
50128;SDS011;36026;45.478;9.224;2023-08-31T05:14:20;5.57;;;3.30;;
50128;SDS011;36026;45.478;9.224;2023-08-31T05:17:22;7.70;;;3.33;;
50128;SDS011;36026;45.478;9.224;2023-08-31T05:20:34;5.43;;;3.50;;
50128;SDS011;36026;45.478;9.224;2023-08-31T05:23:36;4.00;;;2.97;;
50128;SDS011;36026;45.478;9.224;2023-08-31T05:26:38;4.60;;;3.47;;
50128;SDS011;36026;45.478;9.224;2023-08-31T05:29:42;6.00;;;3.70;;
50128;SDS011;36026;45.478;9.224;2023-08-31T05:32:43;6.25;;;3.67;;
50128;SDS011;36026;45.478;9.224;2023-08-31T05:35:46;6.88;;;3.90;;
50128;SDS011;36026;45.478;9.224;2023-08-31T05:38:47;6.55;;;3.50;;
50128;SDS011;36026;45.478;9.224;2023-08-31T05:41:50;5.95;;;3.38;;
50128;SDS011;36026;45.478;9.224;2023-08-31T05:44:53;6.05;;;3.50;;
50128;SDS011;36026;45.478;9.224;2023-08-31T05:47:55;3.75;;;2.70;;
50128;SDS011;36026;45.478;9.224;2023-08-31T05:50:57;6.68;;;3.70;;
50128;SDS011;36026;45.478;9.224;2023-08-31T05:53:59;6.45;;;3.03;;
50128;SDS011;36026;45.478;9.224;2023-08-31T05:57:02;7.25;;;3.72;;
50128;SDS011;36026;45.478;9.224;2023-08-31T06:04:04;7.97;;;3.40;;
50128;SDS011;36026;45.478;9.224;2023-08-31T06:08:05;6.50;;;3.67;;
50128;SDS011;36026;45.478;9.224;2023-08-31T06:11:16;6.72;;;3.15;;
50128;SDS011;36026;45.478;9.224;2023-08-31T06:14:19;5.85;;;3.30;;
50128;SDS011;36026;45.478;9.224;2023-08-31T06:17:21;6.50;;;3.40;;
50128;SDS011;36026;45.478;9.224;2023-08-31T06:20:25;5.78;;;3.53;;
50128;SDS011;36026;45.478;9.224;2023-08-31T06:23:27;6.68;;;3.53;;
50128;SDS011;36026;45.478;9.224;2023-08-31T06:26:29;6.13;;;2.92;;
50128;SDS011;36026;45.478;9.224;2023-08-31T06:29:31;5.82;;;2.97;;
50128;SDS011;36026;45.478;9.224;2023-08-31T06:32:33;6.93;;;3.08;;
50128;SDS011;36026;45.478;9.224;2023-08-31T06:35:39;6.50;;;3.10;;
50128;SDS011;36026;45.478;9.224;2023-08-31T06:38:46;8.43;;;3.30;;
50128;SDS011;36026;45.478;9.224;2023-08-31T06:41:52;9.15;;;3.33;;
50128;SDS011;36026;45.478;9.224;2023-08-31T06:44:54;6.38;;;2.65;;
50128;SDS011;36026;45.478;9.224;2023-08-31T06:47:59;10.70;;;3.42;;
50128;SDS011;36026;45.478;9.224;2023-08-31T06:51:02;4.75;;;3.03;;
50128;SDS011;36026;45.478;9.224;2023-08-31T06:57:10;5.00;;;3.63;;
50128;SDS011;36026;45.478;9.224;2023-08-31T07:00:18;6.38;;;3.13;;
50128;SDS011;36026;45.478;9.224;2023-08-31T07:03:21;10.32;;;3.42;;
50128;SDS011;36026;45.478;9.224;2023-08-31T07:06:25;8.82;;;3.55;;
50128;SDS011;36026;45.478;9.224;2023-08-31T07:09:26;7.28;;;3.20;;
50128;SDS011;36026;45.478;9.224;2023-08-31T07:12:29;5.65;;;3.85;;
50128;SDS011;36026;45.478;9.224;2023-08-31T07:15:30;8.93;;;3.40;;
50128;SDS011;36026;45.478;9.224;2023-08-31T07:18:32;8.55;;;3.65;;
50128;SDS011;36026;45.478;9.224;2023-08-31T07:21:35;6.00;;;2.75;;
50128;SDS011;36026;45.478;9.224;2023-08-31T07:24:37;5.75;;;2.50;;
50128;SDS011;36026;45.478;9.224;2023-08-31T07:27:39;4.40;;;1.83;;
50128;SDS011;36026;45.478;9.224;2023-08-31T07:30:41;3.97;;;2.08;;
50128;SDS011;36026;45.478;9.224;2023-08-31T07:33:43;7.93;;;1.90;;
50128;SDS011;36026;45.478;9.224;2023-08-31T07:36:46;5.78;;;2.67;;
50128;SDS011;36026;45.478;9.224;2023-08-31T07:39:48;6.45;;;2.70;;
50128;SDS011;36026;45.478;9.224;2023-08-31T07:42:49;5.03;;;2.30;;
50128;SDS011;36026;45.478;9.224;2023-08-31T07:45:52;3.58;;;1.90;;
50128;SDS011;36026;45.478;9.224;2023-08-31T07:48:53;3.90;;;2.00;;
50128;SDS011;36026;45.478;9.224;2023-08-31T07:51:57;5.03;;;1.80;;
50128;SDS011;36026;45.478;9.224;2023-08-31T07:54:59;7.07;;;2.22;;
50128;SDS011;36026;45.478;9.224;2023-08-31T07:58:02;5.22;;;1.70;;
50128;SDS011;36026;45.478;9.224;2023-08-31T08:01:03;6.15;;;1.83;;
50128;SDS011;36026;45.478;9.224;2023-08-31T08:04:06;3.97;;;1.70;;
50128;SDS011;36026;45.478;9.224;2023-08-31T08:07:09;2.80;;;1.40;;
50128;SDS011;36026;45.478;9.224;2023-08-31T08:13:12;4.30;;;1.50;;
50128;SDS011;36026;45.478;9.224;2023-08-31T08:16:15;3.58;;;1.48;;
50128;SDS011;36026;45.478;9.224;2023-08-31T08:19:20;3.40;;;1.50;;
50128;SDS011;36026;45.478;9.224;2023-08-31T08:22:25;6.88;;;1.55;;
50128;SDS011;36026;45.478;9.224;2023-08-31T08:25:34;2.90;;;1.27;;
50128;SDS011;36026;45.478;9.224;2023-08-31T08:28:38;4.32;;;1.65;;
50128;SDS011;36026;45.478;9.224;2023-08-31T08:31:41;8.93;;;1.50;;
50128;SDS011;36026;45.478;9.224;2023-08-31T08:34:43;17.90;;;1.73;;
50128;SDS011;36026;45.478;9.224;2023-08-31T08:37:46;10.00;;;1.52;;
50128;SDS011;36026;45.478;9.224;2023-08-31T08:40:47;3.47;;;1.65;;
50128;SDS011;36026;45.478;9.224;2023-08-31T08:43:50;4.40;;;1.40;;
50128;SDS011;36026;45.478;9.224;2023-08-31T08:46:52;5.68;;;1.50;;
50128;SDS011;36026;45.478;9.224;2023-08-31T08:49:54;3.10;;;1.40;;
50128;SDS011;36026;45.478;9.224;2023-08-31T08:52:58;6.57;;;1.60;;
50128;SDS011;36026;45.478;9.224;2023-08-31T08:56:00;3.03;;;1.40;;
50128;SDS011;36026;45.478;9.224;2023-08-31T08:59:02;6.78;;;1.48;;
50128;SDS011;36026;45.478;9.224;2023-08-31T09:02:04;4.05;;;1.42;;
50128;SDS011;36026;45.478;9.224;2023-08-31T09:05:06;5.65;;;2.10;;
50128;SDS011;36026;45.478;9.224;2023-08-31T09:08:11;7.53;;;1.88;;
50128;SDS011;36026;45.478;9.224;2023-08-31T09:11:19;5.72;;;1.98;;
50128;SDS011;36026;45.478;9.224;2023-08-31T09:14:22;4.82;;;1.60;;
50128;SDS011;36026;45.478;9.224;2023-08-31T09:17:24;3.92;;;1.35;;
50128;SDS011;36026;45.478;9.224;2023-08-31T09:20:26;4.63;;;1.83;;
50128;SDS011;36026;45.478;9.224;2023-08-31T09:23:29;4.18;;;1.55;;
50128;SDS011;36026;45.478;9.224;2023-08-31T09:26:34;3.67;;;1.70;;
50128;SDS011;36026;45.478;9.224;2023-08-31T09:29:38;4.03;;;1.40;;
50128;SDS011;36026;45.478;9.224;2023-08-31T09:32:40;5.68;;;2.30;;
50128;SDS011;36026;45.478;9.224;2023-08-31T09:35:48;4.35;;;1.70;;
50128;SDS011;36026;45.478;9.224;2023-08-31T09:38:52;3.38;;;1.48;;
50128;SDS011;36026;45.478;9.224;2023-08-31T09:41:58;4.38;;;1.75;;
50128;SDS011;36026;45.478;9.224;2023-08-31T09:45:03;5.60;;;1.70;;
50128;SDS011;36026;45.478;9.224;2023-08-31T09:48:06;4.20;;;1.70;;
50128;SDS011;36026;45.478;9.224;2023-08-31T09:51:09;3.92;;;1.80;;
50128;SDS011;36026;45.478;9.224;2023-08-31T09:54:13;3.42;;;1.50;;
50128;SDS011;36026;45.478;9.224;2023-08-31T09:57:17;4.72;;;1.60;;
50128;SDS011;36026;45.478;9.224;2023-08-31T10:00:20;4.38;;;1.50;;
50128;SDS011;36026;45.478;9.224;2023-08-31T10:03:22;4.40;;;1.55;;
50128;SDS011;36026;45.478;9.224;2023-08-31T10:06:24;3.15;;;1.40;;
50128;SDS011;36026;45.478;9.224;2023-08-31T10:09:31;4.18;;;1.75;;
50128;SDS011;36026;45.478;9.224;2023-08-31T10:12:37;4.28;;;1.48;;
50128;SDS011;36026;45.478;9.224;2023-08-31T10:15:39;4.43;;;1.80;;
50128;SDS011;36026;45.478;9.224;2023-08-31T10:18:43;4.05;;;1.58;;
50128;SDS011;36026;45.478;9.224;2023-08-31T10:21:45;4.10;;;1.40;;
50128;SDS011;36026;45.478;9.224;2023-08-31T10:24:58;5.30;;;1.37;;
50128;SDS011;36026;45.478;9.224;2023-08-31T10:28:10;4.93;;;1.60;;
50128;SDS011;36026;45.478;9.224;2023-08-31T10:31:18;4.88;;;1.40;;
50128;SDS011;36026;45.478;9.224;2023-08-31T10:34:33;5.60;;;1.40;;
50128;SDS011;36026;45.478;9.224;2023-08-31T10:37:39;3.85;;;1.42;;
50128;SDS011;36026;45.478;9.224;2023-08-31T10:40:42;6.55;;;1.52;;
50128;SDS011;36026;45.478;9.224;2023-08-31T10:44:17;5.03;;;1.27;;
50128;SDS011;36026;45.478;9.224;2023-08-31T10:47:24;3.75;;;1.30;;
50128;SDS011;36026;45.478;9.224;2023-08-31T10:50:58;3.22;;;1.42;;
50128;SDS011;36026;45.478;9.224;2023-08-31T10:54:04;3.17;;;1.30;;
50128;SDS011;36026;45.478;9.224;2023-08-31T10:57:15;5.50;;;1.50;;
50128;SDS011;36026;45.478;9.224;2023-08-31T11:03:59;4.20;;;1.60;;
50128;SDS011;36026;45.478;9.224;2023-08-31T11:07:13;4.90;;;1.48;;
50128;SDS011;36026;45.478;9.224;2023-08-31T11:10:17;3.85;;;1.27;;
50128;SDS011;36026;45.478;9.224;2023-08-31T11:13:22;4.07;;;1.40;;
50128;SDS011;36026;45.478;9.224;2023-08-31T11:16:24;4.07;;;1.48;;
50128;SDS011;36026;45.478;9.224;2023-08-31T11:19:26;5.55;;;1.35;;
50128;SDS011;36026;45.478;9.224;2023-08-31T11:22:27;2.92;;;1.13;;
50128;SDS011;36026;45.478;9.224;2023-08-31T11:25:30;5.33;;;1.10;;
50128;SDS011;36026;45.478;9.224;2023-08-31T11:28:34;5.35;;;1.90;;
50128;SDS011;36026;45.478;9.224;2023-08-31T11:31:37;2.75;;;1.35;;
50128;SDS011;36026;45.478;9.224;2023-08-31T11:34:42;4.13;;;1.27;;
50128;SDS011;36026;45.478;9.224;2023-08-31T11:38:02;2.50;;;1.08;;
50128;SDS011;36026;45.478;9.224;2023-08-31T11:41:45;2.65;;;1.00;;
50128;SDS011;36026;45.478;9.224;2023-08-31T11:49:26;4.30;;;1.50;;
50128;SDS011;36026;45.478;9.224;2023-08-31T11:56:41;2.88;;;1.30;;
50128;SDS011;36026;45.478;9.224;2023-08-31T11:59:48;4.88;;;1.33;;
50128;SDS011;36026;45.478;9.224;2023-08-31T12:03:19;5.20;;;1.38;;
50128;SDS011;36026;45.478;9.224;2023-08-31T12:06:23;2.65;;;1.30;;
50128;SDS011;36026;45.478;9.224;2023-08-31T12:09:25;2.80;;;1.30;;
50128;SDS011;36026;45.478;9.224;2023-08-31T12:12:30;2.30;;;1.10;;
50128;SDS011;36026;45.478;9.224;2023-08-31T12:15:40;2.85;;;1.20;;
50128;SDS011;36026;45.478;9.224;2023-08-31T12:18:58;6.82;;;1.50;;
50128;SDS011;36026;45.478;9.224;2023-08-31T12:26:05;4.53;;;1.50;;
50128;SDS011;36026;45.478;9.224;2023-08-31T12:29:20;7.78;;;1.40;;
50128;SDS011;36026;45.478;9.224;2023-08-31T12:32:30;4.18;;;1.40;;
50128;SDS011;36026;45.478;9.224;2023-08-31T12:35:35;5.15;;;1.77;;
50128;SDS011;36026;45.478;9.224;2023-08-31T12:38:37;4.63;;;1.17;;
50128;SDS011;36026;45.478;9.224;2023-08-31T12:41:40;3.40;;;1.08;;
50128;SDS011;36026;45.478;9.224;2023-08-31T12:44:43;2.20;;;1.20;;
50128;SDS011;36026;45.478;9.224;2023-08-31T12:47:46;2.25;;;0.90;;
50128;SDS011;36026;45.478;9.224;2023-08-31T12:54:29;1.70;;;1.02;;
50128;SDS011;36026;45.478;9.224;2023-08-31T13:09:51;3.08;;;1.00;;
50128;SDS011;36026;45.478;9.224;2023-08-31T13:13:16;2.80;;;1.02;;
50128;SDS011;36026;45.478;9.224;2023-08-31T13:16:35;2.30;;;1.00;;
50128;SDS011;36026;45.478;9.224;2023-08-31T13:19:54;4.25;;;1.30;;
50128;SDS011;36026;45.478;9.224;2023-08-31T13:23:26;2.95;;;1.00;;
50128;SDS011;36026;45.478;9.224;2023-08-31T13:26:58;2.83;;;0.90;;
50128;SDS011;36026;45.478;9.224;2023-08-31T13:30:03;1.40;;;0.75;;
50128;SDS011;36026;45.478;9.224;2023-08-31T13:33:06;2.47;;;1.10;;
50128;SDS011;36026;45.478;9.224;2023-08-31T13:36:08;3.40;;;1.40;;
50128;SDS011;36026;45.478;9.224;2023-08-31T13:39:09;2.70;;;1.13;;
50128;SDS011;36026;45.478;9.224;2023-08-31T13:42:13;4.13;;;1.00;;
50128;SDS011;36026;45.478;9.224;2023-08-31T13:45:15;2.53;;;0.88;;
50128;SDS011;36026;45.478;9.224;2023-08-31T13:48:20;4.68;;;1.05;;
50128;SDS011;36026;45.478;9.224;2023-08-31T13:51:25;2.22;;;1.20;;
50128;SDS011;36026;45.478;9.224;2023-08-31T13:54:41;1.92;;;0.88;;
50128;SDS011;36026;45.478;9.224;2023-08-31T13:57:44;1.88;;;0.90;;
50128;SDS011;36026;45.478;9.224;2023-08-31T14:00:45;3.58;;;1.30;;
50128;SDS011;36026;45.478;9.224;2023-08-31T14:03:47;2.08;;;1.10;;
50128;SDS011;36026;45.478;9.224;2023-08-31T14:06:52;3.97;;;0.90;;
50128;SDS011;36026;45.478;9.224;2023-08-31T14:09:54;1.52;;;0.90;;
50128;SDS011;36026;45.478;9.224;2023-08-31T14:12:57;2.13;;;0.88;;
50128;SDS011;36026;45.478;9.224;2023-08-31T14:15:59;2.58;;;1.00;;
50128;SDS011;36026;45.478;9.224;2023-08-31T14:19:02;3.38;;;1.13;;
50128;SDS011;36026;45.478;9.224;2023-08-31T14:22:25;6.80;;;1.25;;
50128;SDS011;36026;45.478;9.224;2023-08-31T14:25:54;3.58;;;1.15;;
50128;SDS011;36026;45.478;9.224;2023-08-31T14:28:57;8.25;;;1.50;;
50128;SDS011;36026;45.478;9.224;2023-08-31T14:31:59;4.65;;;1.63;;
50128;SDS011;36026;45.478;9.224;2023-08-31T14:35:05;2.63;;;1.20;;
50128;SDS011;36026;45.478;9.224;2023-08-31T14:38:10;3.60;;;1.20;;
50128;SDS011;36026;45.478;9.224;2023-08-31T14:41:12;5.78;;;1.20;;
50128;SDS011;36026;45.478;9.224;2023-08-31T14:44:15;2.10;;;1.23;;
50128;SDS011;36026;45.478;9.224;2023-08-31T14:47:17;3.22;;;1.05;;
50128;SDS011;36026;45.478;9.224;2023-08-31T14:50:19;4.68;;;1.27;;
50128;SDS011;36026;45.478;9.224;2023-08-31T14:53:21;3.40;;;1.30;;
50128;SDS011;36026;45.478;9.224;2023-08-31T14:56:23;3.35;;;1.38;;
50128;SDS011;36026;45.478;9.224;2023-08-31T14:59:32;2.53;;;1.30;;
50128;SDS011;36026;45.478;9.224;2023-08-31T15:02:34;2.53;;;1.25;;
50128;SDS011;36026;45.478;9.224;2023-08-31T15:05:36;3.10;;;1.08;;
50128;SDS011;36026;45.478;9.224;2023-08-31T15:08:38;2.28;;;1.30;;
50128;SDS011;36026;45.478;9.224;2023-08-31T15:11:41;3.33;;;1.35;;
50128;SDS011;36026;45.478;9.224;2023-08-31T15:14:46;2.30;;;0.90;;
50128;SDS011;36026;45.478;9.224;2023-08-31T15:17:47;4.05;;;1.17;;
50128;SDS011;36026;45.478;9.224;2023-08-31T15:20:49;5.18;;;1.20;;
50128;SDS011;36026;45.478;9.224;2023-08-31T15:23:51;2.42;;;1.00;;
50128;SDS011;36026;45.478;9.224;2023-08-31T15:26:58;2.92;;;1.15;;
50128;SDS011;36026;45.478;9.224;2023-08-31T15:30:21;3.75;;;1.00;;
50128;SDS011;36026;45.478;9.224;2023-08-31T15:33:23;2.78;;;1.38;;
50128;SDS011;36026;45.478;9.224;2023-08-31T15:36:25;3.15;;;1.40;;
50128;SDS011;36026;45.478;9.224;2023-08-31T15:39:27;3.10;;;1.40;;
50128;SDS011;36026;45.478;9.224;2023-08-31T15:42:29;2.75;;;1.10;;
50128;SDS011;36026;45.478;9.224;2023-08-31T15:45:32;2.30;;;1.35;;
50128;SDS011;36026;45.478;9.224;2023-08-31T15:51:35;3.83;;;1.30;;
50128;SDS011;36026;45.478;9.224;2023-08-31T15:54:37;68.30;;;6.53;;
50128;SDS011;36026;45.478;9.224;2023-08-31T15:57:39;5.70;;;1.67;;
50128;SDS011;36026;45.478;9.224;2023-08-31T16:00:43;6.07;;;1.83;;
50128;SDS011;36026;45.478;9.224;2023-08-31T16:03:44;2.83;;;1.50;;
50128;SDS011;36026;45.478;9.224;2023-08-31T16:06:46;5.13;;;1.90;;
50128;SDS011;36026;45.478;9.224;2023-08-31T16:09:49;4.07;;;1.70;;
50128;SDS011;36026;45.478;9.224;2023-08-31T16:15:54;3.67;;;1.50;;
50128;SDS011;36026;45.478;9.224;2023-08-31T16:18:56;4.53;;;1.70;;
50128;SDS011;36026;45.478;9.224;2023-08-31T16:21:58;6.60;;;1.92;;
50128;SDS011;36026;45.478;9.224;2023-08-31T16:25:00;6.22;;;2.00;;
50128;SDS011;36026;45.478;9.224;2023-08-31T16:28:02;5.57;;;1.70;;
50128;SDS011;36026;45.478;9.224;2023-08-31T16:31:06;4.07;;;1.80;;
50128;SDS011;36026;45.478;9.224;2023-08-31T16:34:09;11.45;;;2.17;;
50128;SDS011;36026;45.478;9.224;2023-08-31T16:37:10;5.72;;;2.10;;
50128;SDS011;36026;45.478;9.224;2023-08-31T16:40:13;3.38;;;1.80;;
50128;SDS011;36026;45.478;9.224;2023-08-31T16:43:15;4.93;;;1.80;;
50128;SDS011;36026;45.478;9.224;2023-08-31T16:46:18;3.60;;;1.75;;
50128;SDS011;36026;45.478;9.224;2023-08-31T16:49:20;6.35;;;2.20;;
50128;SDS011;36026;45.478;9.224;2023-08-31T16:52:22;3.15;;;2.10;;
50128;SDS011;36026;45.478;9.224;2023-08-31T16:55:24;5.75;;;2.10;;
50128;SDS011;36026;45.478;9.224;2023-08-31T16:58:27;5.15;;;1.90;;
50128;SDS011;36026;45.478;9.224;2023-08-31T17:01:30;4.20;;;2.20;;
50128;SDS011;36026;45.478;9.224;2023-08-31T17:04:32;4.28;;;1.73;;
50128;SDS011;36026;45.478;9.224;2023-08-31T17:07:34;5.68;;;1.70;;
50128;SDS011;36026;45.478;9.224;2023-08-31T17:10:37;3.58;;;1.48;;
50128;SDS011;36026;45.478;9.224;2023-08-31T17:13:39;4.53;;;1.90;;
50128;SDS011;36026;45.478;9.224;2023-08-31T17:16:44;3.58;;;1.88;;
50128;SDS011;36026;45.478;9.224;2023-08-31T17:22:50;2.63;;;1.63;;
50128;SDS011;36026;45.478;9.224;2023-08-31T17:25:52;5.93;;;1.70;;
50128;SDS011;36026;45.478;9.224;2023-08-31T17:28:54;5.72;;;1.80;;
50128;SDS011;36026;45.478;9.224;2023-08-31T17:31:57;4.97;;;2.10;;
50128;SDS011;36026;45.478;9.224;2023-08-31T17:38:03;3.95;;;1.85;;
50128;SDS011;36026;45.478;9.224;2023-08-31T17:41:05;4.95;;;1.67;;
50128;SDS011;36026;45.478;9.224;2023-08-31T17:44:07;2.75;;;1.58;;
50128;SDS011;36026;45.478;9.224;2023-08-31T17:47:10;5.28;;;2.20;;
50128;SDS011;36026;45.478;9.224;2023-08-31T17:50:12;3.70;;;2.20;;
50128;SDS011;36026;45.478;9.224;2023-08-31T17:53:14;4.13;;;1.80;;
50128;SDS011;36026;45.478;9.224;2023-08-31T17:56:17;3.50;;;1.90;;
50128;SDS011;36026;45.478;9.224;2023-08-31T17:59:19;6.95;;;1.88;;
50128;SDS011;36026;45.478;9.224;2023-08-31T18:02:23;4.80;;;1.90;;
50128;SDS011;36026;45.478;9.224;2023-08-31T18:08:26;4.28;;;1.83;;
50128;SDS011;36026;45.478;9.224;2023-08-31T18:11:28;5.30;;;2.15;;
50128;SDS011;36026;45.478;9.224;2023-08-31T18:14:30;5.50;;;1.77;;
50128;SDS011;36026;45.478;9.224;2023-08-31T18:17:33;3.85;;;1.85;;
50128;SDS011;36026;45.478;9.224;2023-08-31T18:20:36;5.20;;;2.00;;
50128;SDS011;36026;45.478;9.224;2023-08-31T18:23:37;6.10;;;1.80;;
50128;SDS011;36026;45.478;9.224;2023-08-31T18:26:40;5.00;;;2.05;;
50128;SDS011;36026;45.478;9.224;2023-08-31T18:29:42;5.88;;;1.75;;
50128;SDS011;36026;45.478;9.224;2023-08-31T18:32:47;3.80;;;1.70;;
50128;SDS011;36026;45.478;9.224;2023-08-31T18:38:51;6.60;;;2.10;;
50128;SDS011;36026;45.478;9.224;2023-08-31T18:41:53;4.82;;;1.88;;
50128;SDS011;36026;45.478;9.224;2023-08-31T18:44:55;3.72;;;1.80;;
50128;SDS011;36026;45.478;9.224;2023-08-31T18:47:58;3.60;;;1.88;;
50128;SDS011;36026;45.478;9.224;2023-08-31T18:51:00;6.78;;;2.38;;
50128;SDS011;36026;45.478;9.224;2023-08-31T18:54:04;4.07;;;1.77;;
50128;SDS011;36026;45.478;9.224;2023-08-31T18:57:06;5.93;;;2.25;;
50128;SDS011;36026;45.478;9.224;2023-08-31T19:00:08;5.95;;;1.95;;
50128;SDS011;36026;45.478;9.224;2023-08-31T19:03:14;5.22;;;2.20;;
50128;SDS011;36026;45.478;9.224;2023-08-31T19:06:16;6.13;;;1.80;;
50128;SDS011;36026;45.478;9.224;2023-08-31T19:09:18;4.25;;;1.70;;
50128;SDS011;36026;45.478;9.224;2023-08-31T19:12:20;6.45;;;1.85;;
50128;SDS011;36026;45.478;9.224;2023-08-31T19:15:22;4.63;;;2.20;;
50128;SDS011;36026;45.478;9.224;2023-08-31T19:18:25;4.32;;;2.33;;
50128;SDS011;36026;45.478;9.224;2023-08-31T19:21:27;4.95;;;1.88;;
50128;SDS011;36026;45.478;9.224;2023-08-31T19:24:29;5.68;;;2.30;;
50128;SDS011;36026;45.478;9.224;2023-08-31T19:27:30;4.85;;;2.05;;
50128;SDS011;36026;45.478;9.224;2023-08-31T19:30:32;6.15;;;1.80;;
50128;SDS011;36026;45.478;9.224;2023-08-31T19:33:39;4.68;;;2.13;;